Bradford Regional Airport Bradford US
ICAO: KBFD
IATA: BFD
Category: Medium
Scheduled Services: Yes

Elevation: 2143 ft
TransAlt. 18000 ft.

Airport Communications:
ASOS:133.825
CLEVELAND CNTR:124.325
ALTOONA RDO:122.2
CTAF/UNICOM:123.075

KBFD Zoom In..

Runways:

(A) RW 05 length 4499 ft width 100 ft
---- / hdg 55

(B) RW 14 length 6306 ft width 150 ft
---- / hdg 145

(C) RW 23 length 4499 ft width 100 ft
---- / hdg 235

(D) RW 32 length 6306 ft width 150 ft
ILS 108.30 / hdg 325

Location; KBFD
Day. 20 / Time. 19.53 Zulu
* Altimeter: 30.04
* Temperature: 26° c. 78.8°f.
* Wind from: 170° Speed 07 kn with Gusts up to 16 kn.
Dewpoint: 14° c.
Visibility: 10 Statute Miles.
Clouds: Clear (automated report).

KBFD 201953Z AUTO 17007G16KT 10SM CLR 26/14 A3004 RMK AO2 SLP160 T02610139


Wind From 170°
Speed 07 kn.

 
 
jpsmedia.com for Web Design worldairports.se 2018   terms of use